sensor_id;sensor_type;location;lat;lon;timestamp;pressure;altitude;pressure_sealevel;temperature;humidity
54262;BME280;40174;52.364;6.452;2023-02-14T00:00:22;103260.13;;;0.88;100.00
54262;BME280;40174;52.364;6.452;2023-02-14T00:02:49;103259.25;;;0.86;100.00
54262;BME280;40174;52.364;6.452;2023-02-14T00:05:15;103255.75;;;0.80;100.00
54262;BME280;40174;52.364;6.452;2023-02-14T00:07:42;103257.50;;;0.80;100.00
54262;BME280;40174;52.364;6.452;2023-02-14T00:10:09;103260.09;;;0.80;100.00
54262;BME280;40174;52.364;6.452;2023-02-14T00:12:36;103253.16;;;0.77;100.00
54262;BME280;40174;52.364;6.452;2023-02-14T00:15:04;103253.16;;;0.76;100.00
54262;BME280;40174;52.364;6.452;2023-02-14T00:17:50;103241.88;;;0.74;100.00
54262;BME280;40174;52.364;6.452;2023-02-14T00:20:17;103248.81;;;0.73;100.00
54262;BME280;40174;52.364;6.452;2023-02-14T00:22:43;103247.09;;;0.72;100.00
54262;BME280;40174;52.364;6.452;2023-02-14T00:25:10;103241.03;;;0.69;100.00
54262;BME280;40174;52.364;6.452;2023-02-14T00:27:37;103243.63;;;0.70;100.00
54262;BME280;40174;52.364;6.452;2023-02-14T00:30:07;103249.72;;;0.72;100.00
54262;BME280;40174;52.364;6.452;2023-02-14T00:32:37;103248.81;;;0.72;100.00
54262;BME280;40174;52.364;6.452;2023-02-14T00:35:04;103250.59;;;0.70;100.00
54262;BME280;40174;52.364;6.452;2023-02-14T00:37:31;103245.38;;;0.68;100.00
54262;BME280;40174;52.364;6.452;2023-02-14T00:39:57;103242.75;;;0.67;100.00
54262;BME280;40174;52.364;6.452;2023-02-14T00:42:24;103247.97;;;0.64;100.00
54262;BME280;40174;52.364;6.452;2023-02-14T00:44:51;103241.91;;;0.61;100.00
54262;BME280;40174;52.364;6.452;2023-02-14T00:47:20;103247.13;;;0.58;100.00
54262;BME280;40174;52.364;6.452;2023-02-14T00:49:46;103243.63;;;0.56;100.00
54262;BME280;40174;52.364;6.452;2023-02-14T00:52:13;103241.88;;;0.54;100.00
54262;BME280;40174;52.364;6.452;2023-02-14T00:54:39;103245.38;;;0.50;100.00
54262;BME280;40174;52.364;6.452;2023-02-14T00:57:06;103245.38;;;0.45;100.00
54262;BME280;40174;52.364;6.452;2023-02-14T00:59:34;103237.53;;;0.42;100.00
54262;BME280;40174;52.364;6.452;2023-02-14T01:02:02;103241.00;;;0.39;100.00
54262;BME280;40174;52.364;6.452;2023-02-14T01:04:30;103244.50;;;0.41;100.00
54262;BME280;40174;52.364;6.452;2023-02-14T01:06:57;103243.59;;;0.38;100.00
54262;BME280;40174;52.364;6.452;2023-02-14T01:09:23;103246.22;;;0.36;100.00
54262;BME280;40174;52.364;6.452;2023-02-14T01:11:50;103243.59;;;0.33;100.00
54262;BME280;40174;52.364;6.452;2023-02-14T01:14:17;103244.50;;;0.32;100.00
54262;BME280;40174;52.364;6.452;2023-02-14T01:16:43;103240.13;;;0.31;100.00
54262;BME280;40174;52.364;6.452;2023-02-14T01:19:10;103245.34;;;0.30;100.00
54262;BME280;40174;52.364;6.452;2023-02-14T01:21:38;103234.94;;;0.28;100.00
54262;BME280;40174;52.364;6.452;2023-02-14T01:24:06;103236.69;;;0.28;100.00
54262;BME280;40174;52.364;6.452;2023-02-14T01:26:34;103234.06;;;0.26;100.00
54262;BME280;40174;52.364;6.452;2023-02-14T01:29:01;103239.28;;;0.23;100.00
54262;BME280;40174;52.364;6.452;2023-02-14T01:31:29;103239.28;;;0.23;100.00
54262;BME280;40174;52.364;6.452;2023-02-14T01:33:57;103228.84;;;0.20;100.00
54262;BME280;40174;52.364;6.452;2023-02-14T01:36:29;103239.25;;;0.20;100.00
54262;BME280;40174;52.364;6.452;2023-02-14T01:38:58;103240.13;;;0.19;100.00
54262;BME280;40174;52.364;6.452;2023-02-14T01:41:28;103233.19;;;0.19;100.00
54262;BME280;40174;52.364;6.452;2023-02-14T01:43:57;103234.06;;;0.18;100.00
54262;BME280;40174;52.364;6.452;2023-02-14T01:46:26;103239.25;;;0.20;100.00
54262;BME280;40174;52.364;6.452;2023-02-14T01:48:54;103236.66;;;0.22;100.00
54262;BME280;40174;52.364;6.452;2023-02-14T01:51:22;103236.66;;;0.22;100.00
54262;BME280;40174;52.364;6.452;2023-02-14T01:53:50;103233.19;;;0.21;100.00
54262;BME280;40174;52.364;6.452;2023-02-14T01:56:22;103234.06;;;0.20;100.00
54262;BME280;40174;52.364;6.452;2023-02-14T01:58:53;103237.50;;;0.17;100.00
54262;BME280;40174;52.364;6.452;2023-02-14T02:01:22;103243.59;;;0.15;100.00
54262;BME280;40174;52.364;6.452;2023-02-14T02:03:53;103243.56;;;0.13;100.00
54262;BME280;40174;52.364;6.452;2023-02-14T02:06:22;103237.50;;;0.10;100.00
54262;BME280;40174;52.364;6.452;2023-02-14T02:08:59;103233.16;;;0.06;100.00
54262;BME280;40174;52.364;6.452;2023-02-14T02:11:30;103240.13;;;0.05;100.00
54262;BME280;40174;52.364;6.452;2023-02-14T02:13:56;103236.66;;;0.05;100.00
54262;BME280;40174;52.364;6.452;2023-02-14T02:19:55;103240.09;;;0.01;100.00
54262;BME280;40174;52.364;6.452;2023-02-14T02:25:38;103228.81;;;-0.02;100.00
54262;BME280;40174;52.364;6.452;2023-02-14T02:28:33;103230.56;;;-0.04;100.00
54262;BME280;40174;52.364;6.452;2023-02-14T02:31:24;103228.81;;;-0.03;100.00
54262;BME280;40174;52.364;6.452;2023-02-14T02:34:26;103216.69;;;-0.06;100.00
54262;BME280;40174;52.364;6.452;2023-02-14T02:37:10;103217.56;;;-0.07;100.00
54262;BME280;40174;52.364;6.452;2023-02-14T02:39:53;103211.47;;;-0.07;100.00
54262;BME280;40174;52.364;6.452;2023-02-14T02:42:32;103208.88;;;-0.07;100.00
54262;BME280;40174;52.364;6.452;2023-02-14T02:45:10;103207.16;;;-0.08;100.00
54262;BME280;40174;52.364;6.452;2023-02-14T02:47:42;103201.06;;;-0.07;100.00
54262;BME280;40174;52.364;6.452;2023-02-14T02:50:19;103200.19;;;-0.09;100.00
54262;BME280;40174;52.364;6.452;2023-02-14T02:53:14;103194.13;;;-0.13;100.00
54262;BME280;40174;52.364;6.452;2023-02-14T02:55:44;103188.94;;;-0.13;100.00
54262;BME280;40174;52.364;6.452;2023-02-14T02:58:34;103195.00;;;-0.15;100.00
54262;BME280;40174;52.364;6.452;2023-02-14T03:01:07;103196.72;;;-0.19;100.00
54262;BME280;40174;52.364;6.452;2023-02-14T03:03:35;103194.13;;;-0.22;100.00
54262;BME280;40174;52.364;6.452;2023-02-14T03:06:20;103188.03;;;-0.26;100.00
54262;BME280;40174;52.364;6.452;2023-02-14T03:08:48;103194.09;;;-0.24;100.00
54262;BME280;40174;52.364;6.452;2023-02-14T03:11:15;103185.44;;;-0.26;100.00
54262;BME280;40174;52.364;6.452;2023-02-14T03:13:52;103188.91;;;-0.28;100.00
54262;BME280;40174;52.364;6.452;2023-02-14T03:16:25;103196.69;;;-0.28;100.00
54262;BME280;40174;52.364;6.452;2023-02-14T03:19:11;103186.28;;;-0.28;100.00
54262;BME280;40174;52.364;6.452;2023-02-14T03:21:44;103189.75;;;-0.28;100.00
54262;BME280;40174;52.364;6.452;2023-02-14T03:24:19;103191.47;;;-0.30;100.00
54262;BME280;40174;52.364;6.452;2023-02-14T03:26:55;103185.44;;;-0.29;100.00
54262;BME280;40174;52.364;6.452;2023-02-14T03:29:32;103188.88;;;-0.30;100.00
54262;BME280;40174;52.364;6.452;2023-02-14T03:32:06;103175.88;;;-0.33;100.00
54262;BME280;40174;52.364;6.452;2023-02-14T03:34:42;103181.06;;;-0.34;100.00
54262;BME280;40174;52.364;6.452;2023-02-14T03:37:14;103176.75;;;-0.34;100.00
54262;BME280;40174;52.364;6.452;2023-02-14T03:39:51;103168.09;;;-0.37;100.00
54262;BME280;40174;52.364;6.452;2023-02-14T03:42:25;103172.41;;;-0.36;100.00
54262;BME280;40174;52.364;6.452;2023-02-14T03:44:54;103183.66;;;-0.34;100.00
54262;BME280;40174;52.364;6.452;2023-02-14T03:47:25;103181.94;;;-0.35;100.00
54262;BME280;40174;52.364;6.452;2023-02-14T03:49:56;103177.63;;;-0.35;100.00
54262;BME280;40174;52.364;6.452;2023-02-14T03:52:25;103182.81;;;-0.33;100.00
54262;BME280;40174;52.364;6.452;2023-02-14T03:54:57;103175.88;;;-0.34;100.00
54262;BME280;40174;52.364;6.452;2023-02-14T03:57:28;103181.06;;;-0.34;100.00
54262;BME280;40174;52.364;6.452;2023-02-14T03:59:57;103178.50;;;-0.36;100.00
54262;BME280;40174;52.364;6.452;2023-02-14T04:02:30;103178.47;;;-0.37;100.00
54262;BME280;40174;52.364;6.452;2023-02-14T04:05:00;103181.03;;;-0.40;100.00
54262;BME280;40174;52.364;6.452;2023-02-14T04:07:29;103181.91;;;-0.43;100.00
54262;BME280;40174;52.364;6.452;2023-02-14T04:09:57;103176.72;;;-0.46;100.00
54262;BME280;40174;52.364;6.452;2023-02-14T04:12:23;103178.47;;;-0.47;100.00
54262;BME280;40174;52.364;6.452;2023-02-14T04:14:50;103175.84;;;-0.48;100.00
54262;BME280;40174;52.364;6.452;2023-02-14T04:17:16;103167.16;;;-0.53;100.00
54262;BME280;40174;52.364;6.452;2023-02-14T04:20:01;103180.16;;;-0.55;100.00
54262;BME280;40174;52.364;6.452;2023-02-14T04:22:27;103174.09;;;-0.54;100.00
54262;BME280;40174;52.364;6.452;2023-02-14T04:24:54;103175.81;;;-0.56;100.00
54262;BME280;40174;52.364;6.452;2023-02-14T04:27:22;103180.16;;;-0.55;100.00
54262;BME280;40174;52.364;6.452;2023-02-14T04:29:49;103174.94;;;-0.56;100.00
54262;BME280;40174;52.364;6.452;2023-02-14T04:32:18;103172.34;;;-0.56;100.00
54262;BME280;40174;52.364;6.452;2023-02-14T04:34:45;103172.34;;;-0.59;100.00
54262;BME280;40174;52.364;6.452;2023-02-14T04:37:12;103170.59;;;-0.62;100.00
54262;BME280;40174;52.364;6.452;2023-02-14T04:39:39;103170.59;;;-0.64;100.00
54262;BME280;40174;52.364;6.452;2023-02-14T04:42:06;103168.88;;;-0.61;100.00
54262;BME280;40174;52.364;6.452;2023-02-14T04:44:34;103170.63;;;-0.60;100.00
54262;BME280;40174;52.364;6.452;2023-02-14T04:47:02;103164.53;;;-0.59;100.00
54262;BME280;40174;52.364;6.452;2023-02-14T04:49:29;103166.25;;;-0.61;100.00
54262;BME280;40174;52.364;6.452;2023-02-14T04:51:56;103169.72;;;-0.64;100.00
54262;BME280;40174;52.364;6.452;2023-02-14T04:54:23;103164.50;;;-0.66;100.00
54262;BME280;40174;52.364;6.452;2023-02-14T04:56:50;103165.34;;;-0.70;100.00
54262;BME280;40174;52.364;6.452;2023-02-14T04:59:16;103159.31;;;-0.73;100.00
54262;BME280;40174;52.364;6.452;2023-02-14T05:01:44;103160.16;;;-0.74;100.00
54262;BME280;40174;52.364;6.452;2023-02-14T05:04:11;103161.88;;;-0.76;100.00
54262;BME280;40174;52.364;6.452;2023-02-14T05:06:37;103156.69;;;-0.78;100.00
54262;BME280;40174;52.364;6.452;2023-02-14T05:09:04;103153.22;;;-0.80;100.00
54262;BME280;40174;52.364;6.452;2023-02-14T05:11:31;103157.56;;;-0.80;100.00
54262;BME280;40174;52.364;6.452;2023-02-14T05:13:57;103157.53;;;-0.82;100.00
54262;BME280;40174;52.364;6.452;2023-02-14T05:16:24;103154.94;;;-0.82;100.00
54262;BME280;40174;52.364;6.452;2023-02-14T05:18:52;103153.19;;;-0.83;100.00
54262;BME280;40174;52.364;6.452;2023-02-14T05:21:19;103147.16;;;-0.82;100.00
54262;BME280;40174;52.364;6.452;2023-02-14T05:23:45;103151.47;;;-0.84;100.00
54262;BME280;40174;52.364;6.452;2023-02-14T05:26:12;103141.94;;;-0.85;100.00
54262;BME280;40174;52.364;6.452;2023-02-14T05:28:39;103149.72;;;-0.87;100.00
54262;BME280;40174;52.364;6.452;2023-02-14T05:31:07;103147.13;;;-0.87;100.00
54262;BME280;40174;52.364;6.452;2023-02-14T05:33:34;103141.94;;;-0.85;100.00
54262;BME280;40174;52.364;6.452;2023-02-14T05:36:02;103148.00;;;-0.85;100.00
54262;BME280;40174;52.364;6.452;2023-02-14T05:38:30;103146.25;;;-0.84;100.00
54262;BME280;40174;52.364;6.452;2023-02-14T05:40:57;103148.84;;;-0.86;100.00
54262;BME280;40174;52.364;6.452;2023-02-14T05:43:24;103140.19;;;-0.89;100.00
54262;BME280;40174;52.364;6.452;2023-02-14T05:45:51;103145.38;;;-0.91;100.00
54262;BME280;40174;52.364;6.452;2023-02-14T05:48:19;103142.75;;;-0.92;100.00
54262;BME280;40174;52.364;6.452;2023-02-14T05:50:45;103143.63;;;-0.95;100.00
54262;BME280;40174;52.364;6.452;2023-02-14T05:53:14;103136.66;;;-0.99;100.00
54262;BME280;40174;52.364;6.452;2023-02-14T05:55:41;103143.59;;;-1.02;100.00
54262;BME280;40174;52.364;6.452;2023-02-14T05:58:07;103137.53;;;-1.03;100.00
54262;BME280;40174;52.364;6.452;2023-02-14T06:00:34;103140.97;;;-1.04;100.00
54262;BME280;40174;52.364;6.452;2023-02-14T06:03:01;103140.09;;;-1.06;100.00
54262;BME280;40174;52.364;6.452;2023-02-14T06:05:28;103139.25;;;-1.07;100.00
54262;BME280;40174;52.364;6.452;2023-02-14T06:07:54;103140.97;;;-1.09;100.00
54262;BME280;40174;52.364;6.452;2023-02-14T06:10:23;103138.34;;;-1.10;100.00
54262;BME280;40174;52.364;6.452;2023-02-14T06:12:52;103140.06;;;-1.11;100.00
54262;BME280;40174;52.364;6.452;2023-02-14T06:15:19;103143.53;;;-1.10;100.00
54262;BME280;40174;52.364;6.452;2023-02-14T06:17:49;103137.50;;;-1.09;100.00
54262;BME280;40174;52.364;6.452;2023-02-14T06:20:17;103140.13;;;-1.08;100.00
54262;BME280;40174;52.364;6.452;2023-02-14T06:22:43;103139.22;;;-1.10;100.00
54262;BME280;40174;52.364;6.452;2023-02-14T06:25:10;103139.22;;;-1.10;100.00
54262;BME280;40174;52.364;6.452;2023-02-14T06:27:38;103148.75;;;-1.09;100.00
54262;BME280;40174;52.364;6.452;2023-02-14T06:30:05;103141.81;;;-1.08;100.00
54262;BME280;40174;52.364;6.452;2023-02-14T06:32:32;103147.00;;;-1.11;100.00
54262;BME280;40174;52.364;6.452;2023-02-14T06:34:59;103145.25;;;-1.15;100.00
54262;BME280;40174;52.364;6.452;2023-02-14T06:37:26;103141.75;;;-1.19;100.00
54262;BME280;40174;52.364;6.452;2023-02-14T06:39:53;103147.78;;;-1.21;100.00
54262;BME280;40174;52.364;6.452;2023-02-14T06:42:19;103156.44;;;-1.24;100.00
54262;BME280;40174;52.364;6.452;2023-02-14T06:44:47;103152.97;;;-1.26;100.00
54262;BME280;40174;52.364;6.452;2023-02-14T06:47:14;103146.91;;;-1.27;100.00
54262;BME280;40174;52.364;6.452;2023-02-14T06:49:41;103154.69;;;-1.28;100.00
54262;BME280;40174;52.364;6.452;2023-02-14T06:52:07;103148.63;;;-1.29;100.00
54262;BME280;40174;52.364;6.452;2023-02-14T06:54:34;103153.81;;;-1.29;100.00
54262;BME280;40174;52.364;6.452;2023-02-14T06:57:00;103161.63;;;-1.27;100.00
54262;BME280;40174;52.364;6.452;2023-02-14T06:59:27;103157.28;;;-1.28;100.00
54262;BME280;40174;52.364;6.452;2023-02-14T07:01:55;103152.97;;;-1.29;100.00
54262;BME280;40174;52.364;6.452;2023-02-14T07:04:22;103174.63;;;-1.26;100.00
54262;BME280;40174;52.364;6.452;2023-02-14T07:06:48;103154.69;;;-1.30;100.00
54262;BME280;40174;52.364;6.452;2023-02-14T07:09:15;103152.09;;;-1.28;100.00
54262;BME280;40174;52.364;6.452;2023-02-14T07:11:43;103162.47;;;-1.27;100.00
54262;BME280;40174;52.364;6.452;2023-02-14T07:14:09;103162.47;;;-1.27;100.00
54262;BME280;40174;52.364;6.452;2023-02-14T07:16:36;103164.19;;;-1.29;100.00
54262;BME280;40174;52.364;6.452;2023-02-14T07:19:04;103166.78;;;-1.29;100.00
54262;BME280;40174;52.364;6.452;2023-02-14T07:21:30;103164.19;;;-1.29;100.00
54262;BME280;40174;52.364;6.452;2023-02-14T07:23:57;103165.06;;;-1.28;100.00
54262;BME280;40174;52.364;6.452;2023-02-14T07:26:24;103160.75;;;-1.29;100.00
54262;BME280;40174;52.364;6.452;2023-02-14T07:28:50;103164.22;;;-1.27;100.00
54262;BME280;40174;52.364;6.452;2023-02-14T07:31:17;103160.75;;;-1.28;100.00
54262;BME280;40174;52.364;6.452;2023-02-14T07:33:46;103167.66;;;-1.27;100.00
54262;BME280;40174;52.364;6.452;2023-02-14T07:36:14;103163.38;;;-1.24;100.00
54262;BME280;40174;52.364;6.452;2023-02-14T07:38:41;103165.09;;;-1.23;100.00
54262;BME280;40174;52.364;6.452;2023-02-14T07:41:07;103165.09;;;-1.23;100.00
54262;BME280;40174;52.364;6.452;2023-02-14T07:43:34;103165.97;;;-1.23;100.00
54262;BME280;40174;52.364;6.452;2023-02-14T07:46:01;103165.97;;;-1.20;100.00
54262;BME280;40174;52.364;6.452;2023-02-14T07:48:28;103170.31;;;-1.19;100.00
54262;BME280;40174;52.364;6.452;2023-02-14T07:50:54;103168.59;;;-1.17;100.00
54262;BME280;40174;52.364;6.452;2023-02-14T07:53:23;103172.06;;;-1.15;100.00
54262;BME280;40174;52.364;6.452;2023-02-14T07:55:50;103172.97;;;-1.10;100.00
54262;BME280;40174;52.364;6.452;2023-02-14T07:58:17;103173.00;;;-1.05;100.00
54262;BME280;40174;52.364;6.452;2023-02-14T08:00:45;103160.88;;;-1.05;100.00
54262;BME280;40174;52.364;6.452;2023-02-14T08:03:12;103164.34;;;-1.01;100.00
54262;BME280;40174;52.364;6.452;2023-02-14T08:05:39;103168.69;;;-0.97;100.00
54262;BME280;40174;52.364;6.452;2023-02-14T08:08:06;103175.66;;;-0.93;100.00
54262;BME280;40174;52.364;6.452;2023-02-14T08:10:34;103170.47;;;-0.91;100.00
54262;BME280;40174;52.364;6.452;2023-02-14T08:13:00;103166.19;;;-0.85;100.00
54262;BME280;40174;52.364;6.452;2023-02-14T08:15:29;103167.94;;;-0.80;100.00
54262;BME280;40174;52.364;6.452;2023-02-14T08:18:14;103165.34;;;-0.73;100.00
54262;BME280;40174;52.364;6.452;2023-02-14T08:20:41;103165.34;;;-0.70;100.00
54262;BME280;40174;52.364;6.452;2023-02-14T08:23:08;103168.00;;;-0.67;100.00
54262;BME280;40174;52.364;6.452;2023-02-14T08:25:36;103176.69;;;-0.60;100.00
54262;BME280;40174;52.364;6.452;2023-02-14T08:28:04;103175.78;;;-0.59;100.00
54262;BME280;40174;52.364;6.452;2023-02-14T08:30:31;103168.91;;;-0.55;100.00
54262;BME280;40174;52.364;6.452;2023-02-14T08:32:58;103174.97;;;-0.50;100.00
54262;BME280;40174;52.364;6.452;2023-02-14T08:35:25;103160.25;;;-0.44;100.00
54262;BME280;40174;52.364;6.452;2023-02-14T08:37:51;103162.88;;;-0.42;100.00
54262;BME280;40174;52.364;6.452;2023-02-14T08:40:18;103165.50;;;-0.36;100.00
54262;BME280;40174;52.364;6.452;2023-02-14T08:42:46;103164.63;;;-0.26;100.00
54262;BME280;40174;52.364;6.452;2023-02-14T08:45:13;103169.88;;;-0.15;100.00
54262;BME280;40174;52.364;6.452;2023-02-14T08:47:40;103166.41;;;-0.03;100.00
54262;BME280;40174;52.364;6.452;2023-02-14T08:50:10;103160.34;;;0.01;100.00
54262;BME280;40174;52.364;6.452;2023-02-14T08:52:38;103164.69;;;0.24;100.00
54262;BME280;40174;52.364;6.452;2023-02-14T08:55:05;103170.78;;;0.35;100.00
54262;BME280;40174;52.364;6.452;2023-02-14T08:57:32;103163.81;;;0.41;100.00
54262;BME280;40174;52.364;6.452;2023-02-14T09:00:00;103159.47;;;0.56;100.00
54262;BME280;40174;52.364;6.452;2023-02-14T09:02:27;103162.03;;;0.76;100.00
54262;BME280;40174;52.364;6.452;2023-02-14T09:04:53;103155.97;;;0.80;100.00
54262;BME280;40174;52.364;6.452;2023-02-14T09:07:20;103155.91;;;0.94;100.00
54262;BME280;40174;52.364;6.452;2023-02-14T09:09:46;103162.84;;;1.10;100.00
54262;BME280;40174;52.364;6.452;2023-02-14T09:12:13;103155.00;;;1.07;100.00
54262;BME280;40174;52.364;6.452;2023-02-14T09:14:42;103148.91;;;1.14;100.00
54262;BME280;40174;52.364;6.452;2023-02-14T09:17:11;103156.63;;;1.37;100.00
54262;BME280;40174;52.364;6.452;2023-02-14T09:19:38;103158.34;;;1.44;100.00
54262;BME280;40174;52.364;6.452;2023-02-14T09:22:06;103150.41;;;1.63;100.00
54262;BME280;40174;52.364;6.452;2023-02-14T09:24:35;103154.72;;;1.70;100.00
54262;BME280;40174;52.364;6.452;2023-02-14T09:27:03;103160.81;;;1.69;100.00
54262;BME280;40174;52.364;6.452;2023-02-14T09:29:30;103157.22;;;1.85;100.00
54262;BME280;40174;52.364;6.452;2023-02-14T09:31:58;103153.72;;;1.90;100.00
54262;BME280;40174;52.364;6.452;2023-02-14T09:34:27;103165.69;;;2.18;100.00
54262;BME280;40174;52.364;6.452;2023-02-14T09:37:12;103153.47;;;2.22;100.00
54262;BME280;40174;52.364;6.452;2023-02-14T09:39:57;103154.19;;;2.39;100.00
54262;BME280;40174;52.364;6.452;2023-02-14T09:42:40;103160.31;;;2.38;100.00
54262;BME280;40174;52.364;6.452;2023-02-14T09:45:13;103150.44;;;2.66;100.00
54262;BME280;40174;52.364;6.452;2023-02-14T09:47:44;103149.59;;;2.66;100.00
54262;BME280;40174;52.364;6.452;2023-02-14T09:50:18;103150.44;;;2.69;100.00
54262;BME280;40174;52.364;6.452;2023-02-14T09:52:48;103151.03;;;2.95;100.00
54262;BME280;40174;52.364;6.452;2023-02-14T09:55:16;103149.22;;;3.00;100.00
54262;BME280;40174;52.364;6.452;2023-02-14T09:57:54;103154.38;;;3.06;100.00
54262;BME280;40174;52.364;6.452;2023-02-14T10:00:32;103144.56;;;3.26;100.00
54262;BME280;40174;52.364;6.452;2023-02-14T10:03:08;103148.00;;;3.28;100.00
54262;BME280;40174;52.364;6.452;2023-02-14T10:05:44;103140.06;;;3.36;100.00
54262;BME280;40174;52.364;6.452;2023-02-14T10:08:24;103137.09;;;3.62;100.00
54262;BME280;40174;52.364;6.452;2023-02-14T10:11:01;103135.28;;;3.67;100.00
54262;BME280;40174;52.364;6.452;2023-02-14T10:13:34;103137.75;;;3.77;100.00
54262;BME280;40174;52.364;6.452;2023-02-14T10:16:08;103136.56;;;3.98;100.00
54262;BME280;40174;52.364;6.452;2023-02-14T10:18:39;103138.03;;;4.14;100.00
54262;BME280;40174;52.364;6.452;2023-02-14T10:21:10;103138.81;;;4.19;100.00
54262;BME280;40174;52.364;6.452;2023-02-14T10:23:44;103130.78;;;4.31;100.00
54262;BME280;40174;52.364;6.452;2023-02-14T10:26:20;103133.97;;;4.47;100.00
54262;BME280;40174;52.364;6.452;2023-02-14T10:28:50;103136.34;;;4.61;100.00
54262;BME280;40174;52.364;6.452;2023-02-14T10:31:20;103126.44;;;4.77;100.00
54262;BME280;40174;52.364;6.452;2023-02-14T10:33:52;103128.13;;;4.81;100.00
54262;BME280;40174;52.364;6.452;2023-02-14T10:36:31;103125.38;;;4.89;100.00
54262;BME280;40174;52.364;6.452;2023-02-14T10:39:07;103130.69;;;5.26;100.00
54262;BME280;40174;52.364;6.452;2023-02-14T10:41:44;103137.41;;;5.38;100.00
54262;BME280;40174;52.364;6.452;2023-02-14T10:44:32;103133.16;;;5.34;100.00
54262;BME280;40174;52.364;6.452;2023-02-14T10:47:04;103132.06;;;5.42;100.00
54262;BME280;40174;52.364;6.452;2023-02-14T10:49:41;103136.72;;;5.70;100.00
54262;BME280;40174;52.364;6.452;2023-02-14T10:52:17;103136.47;;;5.81;100.00
54262;BME280;40174;52.364;6.452;2023-02-14T10:54:52;103139.63;;;5.97;100.00
54262;BME280;40174;52.364;6.452;2023-02-14T10:57:22;103140.16;;;6.11;100.00
54262;BME280;40174;52.364;6.452;2023-02-14T10:59:53;103138.13;;;6.21;100.00
54262;BME280;40174;52.364;6.452;2023-02-14T11:02:23;103134.38;;;6.33;100.00
54262;BME280;40174;52.364;6.452;2023-02-14T11:04:51;103136.53;;;6.50;100.00
54262;BME280;40174;52.364;6.452;2023-02-14T11:07:20;103132.31;;;6.44;100.00
54262;BME280;40174;52.364;6.452;2023-02-14T11:09:47;103131.34;;;6.48;100.00
54262;BME280;40174;52.364;6.452;2023-02-14T11:12:32;103124.88;;;6.60;100.00
54262;BME280;40174;52.364;6.452;2023-02-14T11:15:18;103125.06;;;6.85;100.00
54262;BME280;40174;52.364;6.452;2023-02-14T11:17:45;103119.06;;;7.11;100.00
54262;BME280;40174;52.364;6.452;2023-02-14T11:20:23;103122.97;;;7.27;100.00
54262;BME280;40174;52.364;6.452;2023-02-14T11:22:52;103116.84;;;7.27;100.00
54262;BME280;40174;52.364;6.452;2023-02-14T11:25:20;103114.06;;;7.32;100.00
54262;BME280;40174;52.364;6.452;2023-02-14T11:27:49;103102.09;;;7.51;100.00
54262;BME280;40174;52.364;6.452;2023-02-14T11:30:21;103108.22;;;7.52;100.00
54262;BME280;40174;52.364;6.452;2023-02-14T11:32:52;103103.28;;;7.69;100.00
54262;BME280;40174;52.364;6.452;2023-02-14T11:35:22;103111.53;;;7.85;100.00
54262;BME280;40174;52.364;6.452;2023-02-14T11:37:53;103102.94;;;8.05;100.00
54262;BME280;40174;52.364;6.452;2023-02-14T11:40:26;103105.38;;;8.11;100.00
54262;BME280;40174;52.364;6.452;2023-02-14T11:42:54;103102.28;;;8.25;100.00
54262;BME280;40174;52.364;6.452;2023-02-14T11:45:29;103096.03;;;8.54;100.00
54262;BME280;40174;52.364;6.452;2023-02-14T11:48:08;103093.59;;;8.73;100.00
54262;BME280;40174;52.364;6.452;2023-02-14T11:50:36;103094.84;;;9.10;100.00
54262;BME280;40174;52.364;6.452;2023-02-14T11:53:09;103092.84;;;9.16;100.00
54262;BME280;40174;52.364;6.452;2023-02-14T11:55:37;103090.78;;;9.25;100.00
54262;BME280;40174;52.364;6.452;2023-02-14T11:58:06;103083.25;;;9.38;100.00
54262;BME280;40174;52.364;6.452;2023-02-14T12:00:33;103084.97;;;9.61;100.00
54262;BME280;40174;52.364;6.452;2023-02-14T12:03:01;103078.31;;;9.72;100.00
54262;BME280;40174;52.364;6.452;2023-02-14T12:05:32;103081.97;;;9.90;100.00
54262;BME280;40174;52.364;6.452;2023-02-14T12:08:04;103080.88;;;9.96;100.00
54262;BME280;40174;52.364;6.452;2023-02-14T12:10:34;103075.34;;;10.23;100.00
54262;BME280;40174;52.364;6.452;2023-02-14T12:13:07;103072.97;;;10.37;100.00
54262;BME280;40174;52.364;6.452;2023-02-14T12:15:51;103069.72;;;10.51;100.00
54262;BME280;40174;52.364;6.452;2023-02-14T12:18:45;103067.63;;;10.78;100.00
54262;BME280;40174;52.364;6.452;2023-02-14T12:21:24;103061.91;;;10.87;100.00
54262;BME280;40174;52.364;6.452;2023-02-14T12:23:59;103066.06;;;11.12;100.00
54262;BME280;40174;52.364;6.452;2023-02-14T12:26:34;103057.53;;;11.24;100.00
54262;BME280;40174;52.364;6.452;2023-02-14T12:29:08;103049.50;;;11.44;100.00
54262;BME280;40174;52.364;6.452;2023-02-14T12:31:38;103048.88;;;11.57;100.00
54262;BME280;40174;52.364;6.452;2023-02-14T12:34:05;103049.63;;;11.78;100.00
54262;BME280;40174;52.364;6.452;2023-02-14T12:36:47;103043.94;;;11.85;100.00
54262;BME280;40174;52.364;6.452;2023-02-14T12:39:27;103040.84;;;12.12;100.00
54262;BME280;40174;52.364;6.452;2023-02-14T12:42:05;103027.28;;;12.01;100.00
54262;BME280;40174;52.364;6.452;2023-02-14T12:44:44;103025.47;;;12.19;100.00
54262;BME280;40174;52.364;6.452;2023-02-14T12:47:17;103019.13;;;12.39;100.00
54262;BME280;40174;52.364;6.452;2023-02-14T12:50:16;103017.69;;;12.49;100.00
54262;BME280;40174;52.364;6.452;2023-02-14T12:53:06;103019.28;;;12.69;100.00
54262;BME280;40174;52.364;6.452;2023-02-14T12:55:47;103019.53;;;12.80;100.00
54262;BME280;40174;52.364;6.452;2023-02-14T12:58:28;103008.41;;;12.89;100.00
54262;BME280;40174;52.364;6.452;2023-02-14T13:01:07;103015.53;;;13.05;100.00
54262;BME280;40174;52.364;6.452;2023-02-14T13:06:47;103006.16;;;13.29;100.00
54262;BME280;40174;52.364;6.452;2023-02-14T13:09:23;102993.53;;;13.49;100.00
54262;BME280;40174;52.364;6.452;2023-02-14T13:12:01;102996.03;;;13.52;99.00